sensor_id;sensor_type;location;lat;lon;timestamp;pressure;altitude;pressure_sealevel;temperature;humidity
50550;BME280;36505;52.512;13.460;2023-09-08T00:00:46;101727.03;;;19.49;64.26
50550;BME280;36505;52.512;13.460;2023-09-08T00:03:12;101726.75;;;19.50;64.55
50550;BME280;36505;52.512;13.460;2023-09-08T00:05:37;101715.91;;;19.49;64.19
50550;BME280;36505;52.512;13.460;2023-09-08T00:08:03;101715.91;;;19.44;64.78
50550;BME280;36505;52.512;13.460;2023-09-08T00:10:29;101718.69;;;19.44;64.80
50550;BME280;36505;52.512;13.460;2023-09-08T00:12:54;101720.63;;;19.43;64.67
50550;BME280;36505;52.512;13.460;2023-09-08T00:15:19;101712.56;;;19.37;64.91
50550;BME280;36505;52.512;13.460;2023-09-08T00:17:45;101709.22;;;19.34;65.20
50550;BME280;36505;52.512;13.460;2023-09-08T00:20:12;101715.63;;;19.30;64.90
50550;BME280;36505;52.512;13.460;2023-09-08T00:22:38;101710.34;;;19.28;64.89
50550;BME280;36505;52.512;13.460;2023-09-08T00:25:04;101708.13;;;19.25;65.00
50550;BME280;36505;52.512;13.460;2023-09-08T00:27:31;101701.19;;;19.23;64.98
50550;BME280;36505;52.512;13.460;2023-09-08T00:29:57;101704.25;;;19.21;65.60
50550;BME280;36505;52.512;13.460;2023-09-08T00:32:22;101700.91;;;19.19;65.42
50550;BME280;36505;52.512;13.460;2023-09-08T00:34:48;101700.06;;;19.19;65.33
50550;BME280;36505;52.512;13.460;2023-09-08T00:37:13;101693.44;;;19.15;65.41
50550;BME280;36505;52.512;13.460;2023-09-08T00:39:38;101696.47;;;19.13;65.62
50550;BME280;36505;52.512;13.460;2023-09-08T00:42:04;101706.47;;;19.14;65.53
50550;BME280;36505;52.512;13.460;2023-09-08T00:44:30;101710.94;;;19.10;65.64
50550;BME280;36505;52.512;13.460;2023-09-08T00:46:55;101704.81;;;19.08;65.83
50550;BME280;36505;52.512;13.460;2023-09-08T00:49:21;101708.13;;;19.05;65.83
50550;BME280;36505;52.512;13.460;2023-09-08T00:51:47;101698.13;;;19.04;65.84
50550;BME280;36505;52.512;13.460;2023-09-08T00:54:13;101708.97;;;19.01;66.29
50550;BME280;36505;52.512;13.460;2023-09-08T00:56:40;101712.03;;;18.99;65.99
50550;BME280;36505;52.512;13.460;2023-09-08T00:59:05;101708.97;;;18.96;66.05
50550;BME280;36505;52.512;13.460;2023-09-08T01:01:31;101708.16;;;18.90;66.21
50550;BME280;36505;52.512;13.460;2023-09-08T01:03:56;101714.25;;;18.92;66.37
50550;BME280;36505;52.512;13.460;2023-09-08T01:06:23;101706.75;;;18.92;66.18
50550;BME280;36505;52.512;13.460;2023-09-08T01:08:49;101710.34;;;18.93;66.19
50550;BME280;36505;52.512;13.460;2023-09-08T01:11:15;101706.47;;;18.89;66.29
50550;BME280;36505;52.512;13.460;2023-09-08T01:13:43;101707.84;;;18.86;66.51
50550;BME280;36505;52.512;13.460;2023-09-08T01:16:08;101707.03;;;18.86;66.18
50550;BME280;36505;52.512;13.460;2023-09-08T01:18:34;101704.81;;;18.83;66.79
50550;BME280;36505;52.512;13.460;2023-09-08T01:23:41;101705.09;;;18.76;66.71
50550;BME280;36505;52.512;13.460;2023-09-08T01:26:17;101703.69;;;18.79;66.99
50550;BME280;36505;52.512;13.460;2023-09-08T01:28:49;101700.06;;;18.73;67.02
50550;BME280;36505;52.512;13.460;2023-09-08T01:31:15;101698.13;;;18.69;67.01
50550;BME280;36505;52.512;13.460;2023-09-08T01:33:41;101692.56;;;18.64;67.21
50550;BME280;36505;52.512;13.460;2023-09-08T01:36:08;101692.00;;;18.57;67.90
50550;BME280;36505;52.512;13.460;2023-09-08T01:38:34;101691.41;;;18.49;67.86
50550;BME280;36505;52.512;13.460;2023-09-08T01:40:59;101689.19;;;18.46;68.23
50550;BME280;36505;52.512;13.460;2023-09-08T01:43:27;101692.50;;;18.43;68.12
50550;BME280;36505;52.512;13.460;2023-09-08T01:45:52;101681.97;;;18.40;68.17
50550;BME280;36505;52.512;13.460;2023-09-08T01:48:17;101687.50;;;18.40;68.53
50550;BME280;36505;52.512;13.460;2023-09-08T01:50:43;101682.75;;;18.31;68.36
50550;BME280;36505;52.512;13.460;2023-09-08T01:53:08;101680.28;;;18.34;68.45
50550;BME280;36505;52.512;13.460;2023-09-08T01:55:34;101688.03;;;18.32;68.60
50550;BME280;36505;52.512;13.460;2023-09-08T01:57:59;101688.88;;;18.33;68.40
50550;BME280;36505;52.512;13.460;2023-09-08T02:00:24;101685.25;;;18.32;68.68
50550;BME280;36505;52.512;13.460;2023-09-08T02:02:50;101682.75;;;18.31;68.34
50550;BME280;36505;52.512;13.460;2023-09-08T02:05:15;101682.19;;;18.29;68.77
50550;BME280;36505;52.512;13.460;2023-09-08T02:07:40;101679.16;;;18.25;68.75
50550;BME280;36505;52.512;13.460;2023-09-08T02:10:06;101677.19;;;18.21;68.80
50550;BME280;36505;52.512;13.460;2023-09-08T02:12:31;101673.03;;;18.18;69.35
50550;BME280;36505;52.512;13.460;2023-09-08T02:14:57;101665.81;;;18.12;69.52
50550;BME280;36505;52.512;13.460;2023-09-08T02:17:22;101672.72;;;18.09;69.86
50550;BME280;36505;52.512;13.460;2023-09-08T02:19:48;101677.41;;;18.09;69.64
50550;BME280;36505;52.512;13.460;2023-09-08T02:22:13;101672.97;;;18.03;69.70
50550;BME280;36505;52.512;13.460;2023-09-08T02:24:39;101672.38;;;17.96;70.63
50550;BME280;36505;52.512;13.460;2023-09-08T02:27:04;101677.34;;;17.89;70.57
50550;BME280;36505;52.512;13.460;2023-09-08T02:29:31;101673.72;;;17.83;70.84
50550;BME280;36505;52.512;13.460;2023-09-08T02:31:56;101681.47;;;17.81;71.09
50550;BME280;36505;52.512;13.460;2023-09-08T02:34:22;101672.03;;;17.77;71.10
50550;BME280;36505;52.512;13.460;2023-09-08T02:36:47;101677.00;;;17.75;71.16
50550;BME280;36505;52.512;13.460;2023-09-08T02:39:13;101675.38;;;17.74;71.09
50550;BME280;36505;52.512;13.460;2023-09-08T02:41:38;101670.91;;;17.73;71.13
50550;BME280;36505;52.512;13.460;2023-09-08T02:44:05;101667.56;;;17.71;71.44
50550;BME280;36505;52.512;13.460;2023-09-08T02:46:30;101669.50;;;17.70;71.47
50550;BME280;36505;52.512;13.460;2023-09-08T02:48:56;101665.91;;;17.70;71.04
50550;BME280;36505;52.512;13.460;2023-09-08T02:51:21;101665.88;;;17.65;71.86
50550;BME280;36505;52.512;13.460;2023-09-08T02:53:46;101663.91;;;17.60;71.78
50550;BME280;36505;52.512;13.460;2023-09-08T02:56:12;101658.06;;;17.57;71.95
50550;BME280;36505;52.512;13.460;2023-09-08T02:58:37;101661.63;;;17.52;72.55
50550;BME280;36505;52.512;13.460;2023-09-08T03:01:10;101655.78;;;17.49;72.41
50550;BME280;36505;52.512;13.460;2023-09-08T03:03:36;101661.31;;;17.49;72.45
50550;BME280;36505;52.512;13.460;2023-09-08T03:06:02;101652.19;;;17.48;72.57
50550;BME280;36505;52.512;13.460;2023-09-08T03:08:28;101650.81;;;17.46;72.82
50550;BME280;36505;52.512;13.460;2023-09-08T03:10:55;101653.25;;;17.42;72.89
50550;BME280;36505;52.512;13.460;2023-09-08T03:13:21;101651.06;;;17.44;72.31
50550;BME280;36505;52.512;13.460;2023-09-08T03:15:47;101649.97;;;17.45;72.80
50550;BME280;36505;52.512;13.460;2023-09-08T03:18:12;101653.00;;;17.44;72.65
50550;BME280;36505;52.512;13.460;2023-09-08T03:20:37;101647.69;;;17.37;73.19
50550;BME280;36505;52.512;13.460;2023-09-08T03:23:05;101643.53;;;17.34;73.15
50550;BME280;36505;52.512;13.460;2023-09-08T03:25:30;101643.25;;;17.36;72.90
50550;BME280;36505;52.512;13.460;2023-09-08T03:27:56;101645.44;;;17.34;73.34
50550;BME280;36505;52.512;13.460;2023-09-08T03:30:21;101643.25;;;17.31;73.23
50550;BME280;36505;52.512;13.460;2023-09-08T03:32:47;101649.28;;;17.28;73.37
50550;BME280;36505;52.512;13.460;2023-09-08T03:35:12;101648.44;;;17.22;73.52
50550;BME280;36505;52.512;13.460;2023-09-08T03:37:37;101652.56;;;17.20;73.83
50550;BME280;36505;52.512;13.460;2023-09-08T03:40:03;101645.91;;;17.16;74.09
50550;BME280;36505;52.512;13.460;2023-09-08T03:42:32;101654.47;;;17.14;74.16
50550;BME280;36505;52.512;13.460;2023-09-08T03:44:57;101650.84;;;17.14;74.10
50550;BME280;36505;52.512;13.460;2023-09-08T03:47:22;101662.72;;;17.09;74.15
50550;BME280;36505;52.512;13.460;2023-09-08T03:49:48;101652.50;;;17.10;74.34
50550;BME280;36505;52.512;13.460;2023-09-08T03:52:13;101652.50;;;17.10;74.62
50550;BME280;36505;52.512;13.460;2023-09-08T03:54:39;101651.91;;;17.08;74.27
50550;BME280;36505;52.512;13.460;2023-09-08T03:57:05;101658.56;;;17.07;74.75
50550;BME280;36505;52.512;13.460;2023-09-08T03:59:30;101653.81;;;17.02;75.14
50550;BME280;36505;52.512;13.460;2023-09-08T04:01:55;101651.28;;;16.95;75.29
50550;BME280;36505;52.512;13.460;2023-09-08T04:04:21;101651.81;;;16.92;75.63
50550;BME280;36505;52.512;13.460;2023-09-08T04:06:47;101661.22;;;16.91;75.47
50550;BME280;36505;52.512;13.460;2023-09-08T04:09:12;101665.09;;;16.90;75.07
50550;BME280;36505;52.512;13.460;2023-09-08T04:11:38;101657.31;;;16.87;75.44
50550;BME280;36505;52.512;13.460;2023-09-08T04:14:03;101661.44;;;16.85;75.84
50550;BME280;36505;52.512;13.460;2023-09-08T04:16:29;101652.81;;;16.81;75.95
50550;BME280;36505;52.512;13.460;2023-09-08T04:18:54;101657.53;;;16.81;75.58
50550;BME280;36505;52.512;13.460;2023-09-08T04:21:19;101660.03;;;16.82;75.98
50550;BME280;36505;52.512;13.460;2023-09-08T04:23:45;101657.25;;;16.82;75.96
50550;BME280;36505;52.512;13.460;2023-09-08T04:26:12;101653.41;;;16.83;75.81
50550;BME280;36505;52.512;13.460;2023-09-08T04:28:37;101660.03;;;16.82;76.15
50550;BME280;36505;52.512;13.460;2023-09-08T04:31:02;101656.69;;;16.80;75.99
50550;BME280;36505;52.512;13.460;2023-09-08T04:33:29;101656.94;;;16.79;76.52
50550;BME280;36505;52.512;13.460;2023-09-08T04:35:54;101658.31;;;16.76;76.61
50550;BME280;36505;52.512;13.460;2023-09-08T04:38:20;101661.59;;;16.73;76.46
50550;BME280;36505;52.512;13.460;2023-09-08T04:40:45;101653.31;;;16.73;76.50
50550;BME280;36505;52.512;13.460;2023-09-08T04:43:11;101669.06;;;16.73;76.33
50550;BME280;36505;52.512;13.460;2023-09-08T04:45:37;101661.06;;;16.71;76.86
50550;BME280;36505;52.512;13.460;2023-09-08T04:48:02;101667.09;;;16.68;76.84
50550;BME280;36505;52.512;13.460;2023-09-08T04:50:28;101656.88;;;16.69;76.87
50550;BME280;36505;52.512;13.460;2023-09-08T04:52:53;101666.84;;;16.70;76.78
50550;BME280;36505;52.512;13.460;2023-09-08T04:55:18;101659.13;;;16.72;76.92
50550;BME280;36505;52.512;13.460;2023-09-08T04:57:44;101663.25;;;16.69;76.99
50550;BME280;36505;52.512;13.460;2023-09-08T05:00:10;101667.41;;;16.72;77.25
50550;BME280;36505;52.512;13.460;2023-09-08T05:02:37;101669.03;;;16.68;77.26
50550;BME280;36505;52.512;13.460;2023-09-08T05:05:02;101667.09;;;16.68;77.29
50550;BME280;36505;52.512;13.460;2023-09-08T05:07:28;101662.16;;;16.70;77.31
50550;BME280;36505;52.512;13.460;2023-09-08T05:09:53;101672.13;;;16.71;77.15
50550;BME280;36505;52.512;13.460;2023-09-08T05:12:18;101668.78;;;16.69;77.13
50550;BME280;36505;52.512;13.460;2023-09-08T05:14:44;101660.75;;;16.73;76.80
50550;BME280;36505;52.512;13.460;2023-09-08T05:17:10;101672.22;;;16.86;76.78
50550;BME280;36505;52.512;13.460;2023-09-08T05:19:36;101671.44;;;16.91;76.37
50550;BME280;36505;52.512;13.460;2023-09-08T05:22:02;101672.84;;;16.93;76.14
50550;BME280;36505;52.512;13.460;2023-09-08T05:24:27;101670.94;;;16.99;76.10
50550;BME280;36505;52.512;13.460;2023-09-08T05:26:52;101669.63;;;17.07;75.69
50550;BME280;36505;52.512;13.460;2023-09-08T05:29:18;101669.97;;;17.15;75.51
50550;BME280;36505;52.512;13.460;2023-09-08T05:31:43;101662.59;;;17.26;74.60
50550;BME280;36505;52.512;13.460;2023-09-08T05:34:09;101665.38;;;17.31;74.29
50550;BME280;36505;52.512;13.460;2023-09-08T05:36:35;101661.31;;;17.44;74.19
50550;BME280;36505;52.512;13.460;2023-09-08T05:39:05;101670.03;;;17.62;73.13
50550;BME280;36505;52.512;13.460;2023-09-08T05:41:30;101666.75;;;17.75;72.64
50550;BME280;36505;52.512;13.460;2023-09-08T05:43:57;101671.53;;;17.90;72.07
50550;BME280;36505;52.512;13.460;2023-09-08T05:46:22;101666.63;;;18.07;71.35
50550;BME280;36505;52.512;13.460;2023-09-08T05:48:47;101668.91;;;18.26;70.25
50550;BME280;36505;52.512;13.460;2023-09-08T05:51:14;101676.41;;;18.40;69.59
50550;BME280;36505;52.512;13.460;2023-09-08T05:53:40;101673.94;;;18.54;69.12
50550;BME280;36505;52.512;13.460;2023-09-08T05:56:06;101670.66;;;18.62;68.92
50550;BME280;36505;52.512;13.460;2023-09-08T05:58:32;101676.47;;;18.71;68.15
50550;BME280;36505;52.512;13.460;2023-09-08T06:00:57;101677.88;;;18.83;68.22
50550;BME280;36505;52.512;13.460;2023-09-08T06:03:23;101673.72;;;19.01;66.97
50550;BME280;36505;52.512;13.460;2023-09-08T06:05:48;101677.03;;;19.18;66.75
50550;BME280;36505;52.512;13.460;2023-09-08T06:08:13;101672.00;;;19.41;65.74
50550;BME280;36505;52.512;13.460;2023-09-08T06:10:39;101666.66;;;19.75;64.86
50550;BME280;36505;52.512;13.460;2023-09-08T06:13:04;101670.16;;;20.05;63.67
50550;BME280;36505;52.512;13.460;2023-09-08T06:15:30;101669.13;;;20.40;63.15
50550;BME280;36505;52.512;13.460;2023-09-08T06:17:55;101671.78;;;20.66;61.76
50550;BME280;36505;52.512;13.460;2023-09-08T06:20:21;101668.91;;;20.76;60.34
50550;BME280;36505;52.512;13.460;2023-09-08T06:22:47;101665.53;;;20.79;60.65
50550;BME280;36505;52.512;13.460;2023-09-08T06:25:12;101663.22;;;20.91;59.93
50550;BME280;36505;52.512;13.460;2023-09-08T06:27:37;101666.53;;;21.27;59.21
50550;BME280;36505;52.512;13.460;2023-09-08T06:30:03;101658.25;;;21.46;57.85
50550;BME280;36505;52.512;13.460;2023-09-08T06:32:29;101652.97;;;21.44;57.86
50550;BME280;36505;52.512;13.460;2023-09-08T06:34:54;101664.97;;;21.68;56.79
50550;BME280;36505;52.512;13.460;2023-09-08T06:37:19;101669.53;;;21.83;56.64
50550;BME280;36505;52.512;13.460;2023-09-08T06:39:45;101666.06;;;21.96;56.31
50550;BME280;36505;52.512;13.460;2023-09-08T06:42:10;101663.13;;;22.06;55.82
50550;BME280;36505;52.512;13.460;2023-09-08T06:44:36;101670.25;;;21.94;56.29
50550;BME280;36505;52.512;13.460;2023-09-08T06:47:01;101662.06;;;22.02;56.32
50550;BME280;36505;52.512;13.460;2023-09-08T06:49:28;101664.34;;;22.19;55.51
50550;BME280;36505;52.512;13.460;2023-09-08T06:51:53;101657.50;;;22.30;55.37
50550;BME280;36505;52.512;13.460;2023-09-08T06:54:19;101652.06;;;22.58;54.83
50550;BME280;36505;52.512;13.460;2023-09-08T06:56:44;101663.91;;;22.87;54.00
50550;BME280;36505;52.512;13.460;2023-09-08T06:59:10;101650.94;;;23.10;52.48
50550;BME280;36505;52.512;13.460;2023-09-08T07:01:36;101655.44;;;23.24;52.54
50550;BME280;36505;52.512;13.460;2023-09-08T07:04:01;101654.50;;;23.43;51.91
50550;BME280;36505;52.512;13.460;2023-09-08T07:06:27;101655.09;;;23.72;51.39
50550;BME280;36505;52.512;13.460;2023-09-08T07:08:52;101653.84;;;23.78;50.75
50550;BME280;36505;52.512;13.460;2023-09-08T07:11:17;101650.50;;;24.03;50.26
50550;BME280;36505;52.512;13.460;2023-09-08T07:13:43;101657.78;;;24.54;49.25
50550;BME280;36505;52.512;13.460;2023-09-08T07:16:08;101652.66;;;24.92;47.81
50550;BME280;36505;52.512;13.460;2023-09-08T07:18:33;101659.25;;;25.18;47.67
50550;BME280;36505;52.512;13.460;2023-09-08T07:21:02;101661.88;;;25.77;46.33
50550;BME280;36505;52.512;13.460;2023-09-08T07:23:27;101657.53;;;26.19;45.13
50550;BME280;36505;52.512;13.460;2023-09-08T07:25:52;101650.66;;;26.59;43.84
50550;BME280;36505;52.512;13.460;2023-09-08T07:28:18;101650.16;;;27.09;43.12
50550;BME280;36505;52.512;13.460;2023-09-08T07:30:43;101648.72;;;27.87;41.67
50550;BME280;36505;52.512;13.460;2023-09-08T07:33:09;101653.84;;;28.65;39.64
50550;BME280;36505;52.512;13.460;2023-09-08T07:35:38;101651.34;;;29.17;39.32
50550;BME280;36505;52.512;13.460;2023-09-08T07:38:04;101657.00;;;29.87;38.10
50550;BME280;36505;52.512;13.460;2023-09-08T07:40:29;101653.44;;;30.26;36.91
50550;BME280;36505;52.512;13.460;2023-09-08T07:42:55;101652.66;;;30.13;36.33
50550;BME280;36505;52.512;13.460;2023-09-08T07:45:20;101658.31;;;30.13;36.16
50550;BME280;36505;52.512;13.460;2023-09-08T07:47:46;101659.22;;;30.17;36.26
50550;BME280;36505;52.512;13.460;2023-09-08T07:50:24;101656.53;;;30.21;37.05
50550;BME280;36505;52.512;13.460;2023-09-08T07:52:51;101660.28;;;30.49;36.28
50550;BME280;36505;52.512;13.460;2023-09-08T07:55:17;101657.81;;;30.76;35.51
50550;BME280;36505;52.512;13.460;2023-09-08T07:57:45;101662.66;;;31.03;35.77
50550;BME280;36505;52.512;13.460;2023-09-08T08:00:12;101663.63;;;31.23;34.59
50550;BME280;36505;52.512;13.460;2023-09-08T08:02:48;101657.56;;;31.52;34.04
50550;BME280;36505;52.512;13.460;2023-09-08T08:05:14;101668.06;;;31.52;34.05
50550;BME280;36505;52.512;13.460;2023-09-08T08:07:39;101673.91;;;31.74;33.35
50550;BME280;36505;52.512;13.460;2023-09-08T08:10:06;101667.59;;;31.97;33.92
50550;BME280;36505;52.512;13.460;2023-09-08T08:12:32;101662.16;;;32.23;32.61
50550;BME280;36505;52.512;13.460;2023-09-08T08:14:57;101666.69;;;31.93;32.45
50550;BME280;36505;52.512;13.460;2023-09-08T08:17:24;101669.25;;;31.98;33.17
50550;BME280;36505;52.512;13.460;2023-09-08T08:19:50;101666.03;;;32.15;33.08
50550;BME280;36505;52.512;13.460;2023-09-08T08:22:15;101665.00;;;32.23;33.22
50550;BME280;36505;52.512;13.460;2023-09-08T08:24:41;101660.72;;;32.48;32.28
50550;BME280;36505;52.512;13.460;2023-09-08T08:27:06;101667.19;;;32.84;31.16
50550;BME280;36505;52.512;13.460;2023-09-08T08:29:32;101651.72;;;33.20;31.46
50550;BME280;36505;52.512;13.460;2023-09-08T08:31:57;101646.63;;;33.75;30.54
50550;BME280;36505;52.512;13.460;2023-09-08T08:34:22;101649.19;;;34.32;30.25
50550;BME280;36505;52.512;13.460;2023-09-08T08:36:48;101649.25;;;35.03;29.62
50550;BME280;36505;52.512;13.460;2023-09-08T08:39:13;101650.28;;;34.84;29.04
50550;BME280;36505;52.512;13.460;2023-09-08T08:41:40;101648.50;;;35.06;28.96
50550;BME280;36505;52.512;13.460;2023-09-08T08:44:07;101650.06;;;35.00;27.83
50550;BME280;36505;52.512;13.460;2023-09-08T08:46:33;101647.28;;;35.07;28.09
50550;BME280;36505;52.512;13.460;2023-09-08T08:49:01;101644.34;;;35.33;28.07
50550;BME280;36505;52.512;13.460;2023-09-08T08:51:28;101651.16;;;35.69;27.96
50550;BME280;36505;52.512;13.460;2023-09-08T08:53:55;101647.03;;;35.63;27.02
50550;BME280;36505;52.512;13.460;2023-09-08T08:56:21;101651.25;;;35.32;27.80
50550;BME280;36505;52.512;13.460;2023-09-08T08:58:47;101648.97;;;35.48;27.63
50550;BME280;36505;52.512;13.460;2023-09-08T09:01:16;101642.41;;;35.44;26.75
50550;BME280;36505;52.512;13.460;2023-09-08T09:03:43;101661.34;;;35.26;26.58
50550;BME280;36505;52.512;13.460;2023-09-08T09:06:10;101647.94;;;34.60;27.73
50550;BME280;36505;52.512;13.460;2023-09-08T09:08:37;101643.44;;;34.59;27.32
50550;BME280;36505;52.512;13.460;2023-09-08T09:11:03;101645.28;;;35.11;27.00
50550;BME280;36505;52.512;13.460;2023-09-08T09:13:29;101642.00;;;35.05;26.95
50550;BME280;36505;52.512;13.460;2023-09-08T09:15:58;101637.59;;;35.15;26.80
50550;BME280;36505;52.512;13.460;2023-09-08T09:18:24;101644.47;;;35.47;26.12
50550;BME280;36505;52.512;13.460;2023-09-08T09:20:59;101647.69;;;35.90;26.53
50550;BME280;36505;52.512;13.460;2023-09-08T09:23:34;101643.94;;;36.33;25.50
50550;BME280;36505;52.512;13.460;2023-09-08T09:26:01;101637.44;;;36.36;25.35
50550;BME280;36505;52.512;13.460;2023-09-08T09:28:29;101631.00;;;36.54;24.89
50550;BME280;36505;52.512;13.460;2023-09-08T09:30:55;101627.47;;;36.82;25.23
50550;BME280;36505;52.512;13.460;2023-09-08T09:33:21;101624.25;;;36.97;24.66
50550;BME280;36505;52.512;13.460;2023-09-08T09:35:48;101624.47;;;36.50;25.33
50550;BME280;36505;52.512;13.460;2023-09-08T09:38:15;101622.84;;;36.59;25.40
50550;BME280;36505;52.512;13.460;2023-09-08T09:40:40;101624.63;;;36.78;25.21
50550;BME280;36505;52.512;13.460;2023-09-08T09:43:07;101621.34;;;36.79;25.09
50550;BME280;36505;52.512;13.460;2023-09-08T09:45:36;101623.84;;;37.06;24.28
50550;BME280;36505;52.512;13.460;2023-09-08T09:48:05;101623.84;;;36.95;24.96
50550;BME280;36505;52.512;13.460;2023-09-08T09:50:33;101616.88;;;36.93;25.00
50550;BME280;36505;52.512;13.460;2023-09-08T09:53:07;101622.28;;;37.12;24.15
50550;BME280;36505;52.512;13.460;2023-09-08T09:55:33;101619.78;;;37.03;25.20
50550;BME280;36505;52.512;13.460;2023-09-08T09:57:59;101616.19;;;37.45;24.63
50550;BME280;36505;52.512;13.460;2023-09-08T10:00:27;101614.84;;;36.93;23.87
50550;BME280;36505;52.512;13.460;2023-09-08T10:02:54;101612.56;;;36.30;24.44
50550;BME280;36505;52.512;13.460;2023-09-08T10:05:20;101607.63;;;35.69;25.83
50550;BME280;36505;52.512;13.460;2023-09-08T10:07:47;101614.97;;;35.25;25.72
50550;BME280;36505;52.512;13.460;2023-09-08T10:10:14;101614.16;;;35.25;25.98
50550;BME280;36505;52.512;13.460;2023-09-08T10:12:42;101609.81;;;35.01;25.81
50550;BME280;36505;52.512;13.460;2023-09-08T10:15:10;101607.06;;;34.75;25.71
50550;BME280;36505;52.512;13.460;2023-09-08T10:17:36;101601.78;;;34.43;26.27
50550;BME280;36505;52.512;13.460;2023-09-08T10:20:02;101602.25;;;33.93;27.33
50550;BME280;36505;52.512;13.460;2023-09-08T10:22:41;101602.56;;;33.39;28.14
50550;BME280;36505;52.512;13.460;2023-09-08T10:25:12;101601.84;;;33.00;28.68
50550;BME280;36505;52.512;13.460;2023-09-08T10:27:38;101592.41;;;32.73;29.36
50550;BME280;36505;52.512;13.460;2023-09-08T10:30:05;101594.56;;;32.60;29.46
50550;BME280;36505;52.512;13.460;2023-09-08T10:32:32;101585.50;;;32.35;29.81
50550;BME280;36505;52.512;13.460;2023-09-08T10:34:59;101574.22;;;32.00;30.39
50550;BME280;36505;52.512;13.460;2023-09-08T10:37:26;101581.75;;;31.77;30.81
50550;BME280;36505;52.512;13.460;2023-09-08T10:39:56;101586.78;;;31.68;31.26
50550;BME280;36505;52.512;13.460;2023-09-08T10:42:25;101588.72;;;31.64;31.59
50550;BME280;36505;52.512;13.460;2023-09-08T10:44:59;101589.31;;;31.26;31.70
50550;BME280;36505;52.512;13.460;2023-09-08T10:50:19;101590.09;;;30.95;33.59
50550;BME280;36505;52.512;13.460;2023-09-08T10:53:17;101585.63;;;30.94;33.48
50550;BME280;36505;52.512;13.460;2023-09-08T10:58:28;101585.91;;;30.61;33.87
50550;BME280;36505;52.512;13.460;2023-09-08T11:00:59;101581.25;;;30.41;33.56
50550;BME280;36505;52.512;13.460;2023-09-08T11:03:43;101582.59;;;30.19;34.21
50550;BME280;36505;52.512;13.460;2023-09-08T11:06:10;101584.03;;;30.13;33.28
50550;BME280;36505;52.512;13.460;2023-09-08T11:08:43;101579.09;;;30.10;34.48
50550;BME280;36505;52.512;13.460;2023-09-08T11:11:13;101576.88;;;30.03;34.77
50550;BME280;36505;52.512;13.460;2023-09-08T11:13:39;101577.81;;;29.83;34.61
50550;BME280;36505;52.512;13.460;2023-09-08T11:16:10;101573.38;;;29.70;34.89
50550;BME280;36505;52.512;13.460;2023-09-08T11:18:36;101575.13;;;29.50;34.73
50550;BME280;36505;52.512;13.460;2023-09-08T11:21:02;101568.91;;;29.44;35.06
50550;BME280;36505;52.512;13.460;2023-09-08T11:23:28;101576.31;;;29.37;35.75
50550;BME280;36505;52.512;13.460;2023-09-08T11:25:56;101568.97;;;29.12;35.78
50550;BME280;36505;52.512;13.460;2023-09-08T11:28:21;101570.94;;;28.99;36.80
50550;BME280;36505;52.512;13.460;2023-09-08T11:30:50;101572.47;;;28.96;37.22
50550;BME280;36505;52.512;13.460;2023-09-08T11:33:18;101570.91;;;28.87;36.73
50550;BME280;36505;52.512;13.460;2023-09-08T11:35:46;101570.00;;;28.74;35.70
50550;BME280;36505;52.512;13.460;2023-09-08T11:38:12;101568.09;;;28.66;36.96
50550;BME280;36505;52.512;13.460;2023-09-08T11:40:38;101564.06;;;28.55;37.58
50550;BME280;36505;52.512;13.460;2023-09-08T11:43:04;101570.72;;;28.38;36.55
50550;BME280;36505;52.512;13.460;2023-09-08T11:45:33;101564.13;;;28.05;36.96
50550;BME280;36505;52.512;13.460;2023-09-08T11:47:59;101563.72;;;27.94;37.63
50550;BME280;36505;52.512;13.460;2023-09-08T11:50:24;101561.53;;;28.00;39.11
50550;BME280;36505;52.512;13.460;2023-09-08T11:52:51;101556.72;;;28.00;38.24
50550;BME280;36505;52.512;13.460;2023-09-08T11:55:18;101555.06;;;27.99;37.91
50550;BME280;36505;52.512;13.460;2023-09-08T11:57:47;101546.44;;;27.83;37.48
50550;BME280;36505;52.512;13.460;2023-09-08T12:00:13;101547.53;;;27.70;38.46
50550;BME280;36505;52.512;13.460;2023-09-08T12:02:42;101538.91;;;27.67;38.68
50550;BME280;36505;52.512;13.460;2023-09-08T12:05:12;101544.75;;;27.62;38.81
50550;BME280;36505;52.512;13.460;2023-09-08T12:07:38;101533.22;;;27.55;38.33
50550;BME280;36505;52.512;13.460;2023-09-08T12:10:10;101543.81;;;27.49;38.82
50550;BME280;36505;52.512;13.460;2023-09-08T12:12:47;101536.91;;;27.38;38.16
50550;BME280;36505;52.512;13.460;2023-09-08T12:15:39;101521.38;;;27.32;38.37
50550;BME280;36505;52.512;13.460;2023-09-08T12:18:12;101521.72;;;27.30;39.04
50550;BME280;36505;52.512;13.460;2023-09-08T12:20:39;101517.75;;;27.31;39.71
50550;BME280;36505;52.512;13.460;2023-09-08T12:23:18;101525.13;;;27.15;39.76
50550;BME280;36505;52.512;13.460;2023-09-08T12:25:48;101522.84;;;27.00;39.45
50550;BME280;36505;52.512;13.460;2023-09-08T12:28:17;101526.69;;;26.95;39.53
50550;BME280;36505;52.512;13.460;2023-09-08T12:30:43;101520.91;;;26.92;38.67
50550;BME280;36505;52.512;13.460;2023-09-08T12:33:09;101506.84;;;26.92;39.36
50550;BME280;36505;52.512;13.460;2023-09-08T12:35:36;101509.81;;;26.95;39.13
50550;BME280;36505;52.512;13.460;2023-09-08T12:38:03;101511.31;;;26.93;37.55
50550;BME280;36505;52.512;13.460;2023-09-08T12:40:33;101499.41;;;26.87;39.08
50550;BME280;36505;52.512;13.460;2023-09-08T12:42:59;101497.09;;;26.89;38.59
50550;BME280;36505;52.512;13.460;2023-09-08T12:45:26;101497.59;;;26.91;37.44